Share

Cancún, México

8:07 AM CDT en Abril 24, 2014 (GMT -0500)
XE3ISS (IQUINTAN13) Alt 33 ft | 21.15 °N, 86.85 °W | Change Station

Current weather conditions updated 3 seconds ago

Partly Cloudy
Parcialmente nublado
80.4 ° F
Sensación térmica 83 ° F
N
4.0
Viento Variable Viento desde SE
Gusts 10.0 mph
Amanecer 6:21 AM
Atardecer 7:09 PM
Luna Creciente menguante

Hoy se prevé una temperatura muy similar a la de ayer.

Presión 29.94 pul
Visibilidad 8.0 Millas
Nubes Baja 1500 ft
Índice de calor 83 ° F
Punto de rocío 69 ° F
Humedad 68%
Precipitaciones 0.00 pul
Espesor de la nieve No disponible.
UV 1 de una escala de 16
Polen No disponible.
Calidad del aire No disponible.
Flu Activity No disponible.
METAR MMCZ 241243Z 12004KT 8SM FEW015 22/20 A2994 RMK 8/500

More Conditions Fewer Conditions

Presión 29.94 pul
Visibilidad 8.0 Millas
Nubes Baja 1500 ft
Índice de calor 83 ° F
Punto de rocío 69 ° F
Humedad 68%
Precipitaciones 0.00 pul
Espesor de la nieve No disponible.
UV 1 de una escala de 16
Polen No disponible.
Calidad del aire No disponible.
Flu Activity No disponible.
METAR MMCZ 241243Z 12004KT 8SM FEW015 22/20 A2994 RMK 8/500

More Conditions Fewer Conditions

10-Day Weather Forecast

Almanac

Astronomía

Apr. 24, 2014 Salida Puesta
Hora real 6:21 AM CDT 7:09 PM CDT
Crepúsculo civil 5:58 AM CDT 7:32 PM CDT
Crepúsculo náutico 5:31 AM CDT 7:59 PM CDT
Crepúsculo astronómico 5:04 AM CDT 8:27 PM CDT
Luna 2:54 AM CDT 2:59 PM CDT
Horas de luz 13h 33m
Horas de luz
12h 48m
Tomorrow will be 1m 4s longer.
Creciente menguante, 26% of the Moon is Illuminated
Hoy
Creciente menguante
Abr 29
Nueva
May 6
Cuarto creciente
May 14
Luna llena
May 21
Cuarto menguante

Extremos de ayer

Máximos del país Bajas del país

Community

  • Stacked
    Stacked
  • clouds approaching Red Sox Nation
    clouds approaching Red Sox Nation
  • Balance
    Balance
  • Citysky
    Citysky
  • Nestled In
    Nestled In

WunderPhotos

Upload Photos

1,704,596 ¡fotos cargadas!

Nearby

Calidad del aire

Not available.

Grosos de nieve

Not available.

Temperaturas de aguas costeras

Lugar Temperatura
Sin partes meteorológicos de las estaciones

Actividad de terremotos

Ciudad Distance Mag. Tiempo y dato
No hay informes recientes de la actividad sísmica.
Magnitud mínima muestra es 2,5.

Estaciones meteorológicas cercanas

Ubicación de la estación Temp. Índice de calor Punto de rocío Humedad Viento Precip. Alt Actualizado Tipo
XE3ISS, Cancún 80.4 ° F 83 ° F 69 ° F 68% SE  a  4.0 mph 0.00 pul / hr 33 ft 8:07 AM CDT Rapid Fire

Show More Stations Show Fewer Stations

What do you think?

We're not finished. Please let us know what you like, what you don't like, and what you are still missing.